createdAt,value
2018-08-11T00:00:16.322Z,13.70
2018-08-11T00:02:44.788Z,13.70
2018-08-11T00:05:13.266Z,13.70
2018-08-11T00:07:41.732Z,13.60
2018-08-11T00:10:10.222Z,13.50
2018-08-11T00:12:38.859Z,13.40
2018-08-11T00:15:09.848Z,13.40
2018-08-11T00:17:38.571Z,13.40
2018-08-11T00:20:09.864Z,13.30
2018-08-11T00:22:38.813Z,13.30
2018-08-11T00:25:08.072Z,13.20
2018-08-11T00:27:36.538Z,13.20
2018-08-11T00:30:07.922Z,13.20
2018-08-11T00:32:36.437Z,13.20
2018-08-11T00:35:06.871Z,13.20
2018-08-11T00:37:35.433Z,13.20
2018-08-11T00:40:05.733Z,13.20
2018-08-11T00:42:34.260Z,13.20
2018-08-11T00:45:02.767Z,13.20
2018-08-11T00:47:31.210Z,13.30
2018-08-11T00:49:59.660Z,13.30
2018-08-11T00:52:28.066Z,13.20
2018-08-11T00:54:56.534Z,13.20
2018-08-11T00:57:25.042Z,13.20
2018-08-11T00:59:54.497Z,13.20
2018-08-11T01:02:22.964Z,13.20
2018-08-11T01:04:51.377Z,13.20
2018-08-11T01:07:19.810Z,13.10
2018-08-11T01:09:48.258Z,13.00
2018-08-11T01:12:16.712Z,13.00
2018-08-11T01:14:45.166Z,12.90
2018-08-11T01:17:13.629Z,12.90
2018-08-11T01:19:42.017Z,12.90
2018-08-11T01:22:10.517Z,12.80
2018-08-11T01:24:38.947Z,12.80
2018-08-11T01:27:07.477Z,12.80
2018-08-11T01:29:35.935Z,12.80
2018-08-11T01:32:04.405Z,12.80
2018-08-11T01:34:32.997Z,12.80
2018-08-11T01:37:01.434Z,12.80
2018-08-11T01:39:29.849Z,12.80
2018-08-11T01:41:58.318Z,12.80
2018-08-11T01:44:26.789Z,12.80
2018-08-11T01:46:55.354Z,12.80
2018-08-11T01:49:23.798Z,12.70
2018-08-11T01:51:52.214Z,12.70
2018-08-11T01:54:20.644Z,12.70
2018-08-11T01:56:49.098Z,12.70
2018-08-11T01:59:17.518Z,12.60
2018-08-11T02:01:46.010Z,12.60
2018-08-11T02:04:14.446Z,12.60
2018-08-11T02:06:42.892Z,12.50
2018-08-11T02:09:11.520Z,12.50
2018-08-11T02:11:40.469Z,12.50
2018-08-11T02:14:09.231Z,12.50
2018-08-11T02:16:37.943Z,12.50
2018-08-11T02:19:06.406Z,12.30
2018-08-11T02:21:35.038Z,12.30
2018-08-11T02:24:03.477Z,12.20
2018-08-11T02:26:31.901Z,12.20
2018-08-11T02:29:00.321Z,12.20
2018-08-11T02:31:28.781Z,12.10
2018-08-11T02:33:57.267Z,12.10
2018-08-11T02:36:25.680Z,12.10
2018-08-11T02:38:54.092Z,12.10
2018-08-11T02:41:22.591Z,12.20
2018-08-11T02:43:51.095Z,12.10
2018-08-11T02:46:19.557Z,12.00
2018-08-11T02:51:16.126Z,11.80
2018-08-11T02:53:44.538Z,11.70
2018-08-11T02:56:12.953Z,11.60
2018-08-11T02:58:41.373Z,11.50
2018-08-11T03:01:09.778Z,11.60
2018-08-11T03:06:06.408Z,11.70
2018-08-11T03:08:34.864Z,11.70
2018-08-11T03:11:03.277Z,11.70
2018-08-11T03:13:31.706Z,11.70
2018-08-11T03:16:00.134Z,11.60
2018-08-11T03:18:28.561Z,11.60
2018-08-11T03:20:57.001Z,11.60
2018-08-11T03:23:25.446Z,11.70
2018-08-11T03:25:53.880Z,11.70
2018-08-11T03:28:22.361Z,11.70
2018-08-11T03:30:50.792Z,11.80
2018-08-11T03:33:19.218Z,11.80
2018-08-11T03:35:47.625Z,11.80
2018-08-11T03:40:44.158Z,11.80
2018-08-11T03:43:12.617Z,11.80
2018-08-11T03:45:41.016Z,11.90
2018-08-11T03:48:09.495Z,11.90
2018-08-11T03:50:38.015Z,11.90
2018-08-11T03:53:06.584Z,11.90
2018-08-11T03:55:34.993Z,11.90
2018-08-11T04:00:31.538Z,11.70
2018-08-11T04:02:59.992Z,11.70
2018-08-11T04:05:28.418Z,11.70
2018-08-11T04:07:56.857Z,11.60
2018-08-11T04:10:25.250Z,11.60
2018-08-11T04:12:53.694Z,11.60
2018-08-11T04:15:22.103Z,11.60
2018-08-11T04:17:50.540Z,11.70
2018-08-11T04:20:18.954Z,11.70
2018-08-11T04:22:47.384Z,11.70
2018-08-11T04:25:15.869Z,11.70
2018-08-11T04:30:12.472Z,11.80
2018-08-11T04:32:41.361Z,11.80
2018-08-11T04:35:09.822Z,11.80
2018-08-11T04:37:38.245Z,11.80
2018-08-11T04:40:06.766Z,11.80
2018-08-11T04:42:35.209Z,11.90
2018-08-11T04:45:03.732Z,11.90
2018-08-11T04:50:00.317Z,12.00
2018-08-11T04:52:28.713Z,12.20
2018-08-11T04:54:57.217Z,12.30
2018-08-11T04:57:25.660Z,12.40
2018-08-11T04:59:54.093Z,12.50
2018-08-11T05:02:22.560Z,12.50
2018-08-11T05:04:51.166Z,12.70
2018-08-11T05:07:19.609Z,12.80
2018-08-11T05:09:48.076Z,12.90
2018-08-11T05:12:16.464Z,13.10
2018-08-11T05:14:44.922Z,13.20
2018-08-11T05:17:13.347Z,13.20
2018-08-11T05:19:41.796Z,13.40
2018-08-11T05:22:10.202Z,13.50
2018-08-11T05:24:38.620Z,13.60
2018-08-11T05:27:07.042Z,13.60
2018-08-11T05:29:35.472Z,13.70
2018-08-11T05:32:03.930Z,13.90
2018-08-11T05:34:32.379Z,13.90
2018-08-11T05:37:00.793Z,14.10
2018-08-11T05:39:29.271Z,14.20
2018-08-11T05:41:57.684Z,14.30
2018-08-11T05:46:54.411Z,14.70
2018-08-11T05:49:22.902Z,14.80
2018-08-11T05:51:51.320Z,14.90
2018-08-11T05:54:19.744Z,15.10
2018-08-11T05:56:48.125Z,15.30
2018-08-11T05:59:16.586Z,15.50
2018-08-11T06:01:45.287Z,15.60
2018-08-11T06:04:13.802Z,15.80
2018-08-11T06:06:42.238Z,16.10
2018-08-11T06:09:11.202Z,16.50
2018-08-11T06:14:08.743Z,17.10
2018-08-11T06:16:37.296Z,17.40
2018-08-11T06:19:06.025Z,17.70
2018-08-11T06:21:34.485Z,18.30
2018-08-11T06:24:02.914Z,18.80
2018-08-11T06:26:31.352Z,19.50
2018-08-11T06:28:59.809Z,20.80
2018-08-11T06:31:28.340Z,22.20
2018-08-11T06:33:57.277Z,22.60
2018-08-11T06:36:25.740Z,22.70
2018-08-11T06:38:54.349Z,22.50
2018-08-11T06:41:22.767Z,22.40
2018-08-11T06:43:51.177Z,22.00
2018-08-11T06:46:19.625Z,22.30
2018-08-11T06:48:48.057Z,22.00
2018-08-11T06:51:16.624Z,21.30
2018-08-11T06:53:45.038Z,20.50
2018-08-11T06:56:13.467Z,20.30
2018-08-11T06:58:41.862Z,20.50
2018-08-11T07:01:10.281Z,20.60
2018-08-11T07:03:38.686Z,20.70
2018-08-11T07:06:07.123Z,21.30
2018-08-11T07:08:35.517Z,22.50
2018-08-11T07:11:03.916Z,24.00
2018-08-11T07:13:32.317Z,24.00
2018-08-11T07:16:00.738Z,25.10
2018-08-11T07:18:29.137Z,27.00
2018-08-11T07:20:57.573Z,28.60
2018-08-11T07:23:25.957Z,28.50
2018-08-11T07:25:54.385Z,28.80
2018-08-11T07:28:22.776Z,28.80
2018-08-11T07:30:51.233Z,30.10
2018-08-11T07:33:19.662Z,29.60
2018-08-11T07:35:48.089Z,29.10
2018-08-11T07:40:44.612Z,28.70
2018-08-11T07:43:13.085Z,29.20
2018-08-11T07:45:41.530Z,28.70
2018-08-11T07:48:10.062Z,29.40
2018-08-11T07:50:38.468Z,30.20
2018-08-11T07:53:06.867Z,30.80
2018-08-11T07:55:35.332Z,31.30
2018-08-11T07:58:03.981Z,32.30
2018-08-11T08:00:32.402Z,32.20
2018-08-11T08:03:00.844Z,31.80
2018-08-11T08:05:29.308Z,31.40
2018-08-11T08:07:57.784Z,31.50
2018-08-11T08:10:26.212Z,31.50
2018-08-11T08:12:54.660Z,31.70
2018-08-11T08:15:23.107Z,31.80
2018-08-11T08:17:51.509Z,31.80
2018-08-11T08:20:19.919Z,32.20
2018-08-11T08:22:48.361Z,32.30
2018-08-11T08:25:16.760Z,31.60
2018-08-11T08:27:45.201Z,30.20
2018-08-11T08:30:13.636Z,30.20
2018-08-11T08:32:42.073Z,30.70
2018-08-11T08:35:10.881Z,31.90
2018-08-11T08:37:39.370Z,32.10
2018-08-11T08:40:08.120Z,32.60
2018-08-11T08:42:36.633Z,32.80
2018-08-11T08:45:07.369Z,32.90
2018-08-11T08:47:35.939Z,32.90
2018-08-11T08:50:04.689Z,32.80
2018-08-11T08:52:33.137Z,32.20
2018-08-11T08:55:01.527Z,32.00
2018-08-11T08:57:29.980Z,33.00
2018-08-11T08:59:58.401Z,33.10
2018-08-11T09:02:26.837Z,34.90
2018-08-11T09:04:55.284Z,34.00
2018-08-11T09:07:23.692Z,33.30
2018-08-11T09:09:52.087Z,33.30
2018-08-11T09:12:20.561Z,33.60
2018-08-11T09:14:48.960Z,33.70
2018-08-11T09:17:17.395Z,33.10
2018-08-11T09:19:45.812Z,33.20
2018-08-11T09:22:14.317Z,32.70
2018-08-11T09:24:42.758Z,32.00
2018-08-11T09:27:11.197Z,32.10
2018-08-11T09:29:39.598Z,32.40
2018-08-11T09:32:08.023Z,31.60
2018-08-11T09:34:36.692Z,31.40
2018-08-11T09:37:05.113Z,32.10
2018-08-11T09:39:33.535Z,31.80
2018-08-11T09:42:02.034Z,32.20
2018-08-11T09:44:30.471Z,32.20
2018-08-11T09:46:58.870Z,33.00
2018-08-11T09:49:27.316Z,33.30
2018-08-11T09:51:55.764Z,33.30
2018-08-11T09:54:24.326Z,33.50
2018-08-11T09:56:52.752Z,34.10
2018-08-11T09:59:21.329Z,34.90
2018-08-11T10:01:55.209Z,35.10
2018-08-11T10:04:23.656Z,34.40
2018-08-11T10:06:52.096Z,33.80
2018-08-11T10:09:20.625Z,33.60
2018-08-11T10:11:49.093Z,32.90
2018-08-11T10:14:17.556Z,31.90
2018-08-11T10:16:45.960Z,31.60
2018-08-11T10:19:14.389Z,31.80
2018-08-11T10:21:42.798Z,31.80
2018-08-11T10:24:11.253Z,31.40
2018-08-11T10:26:39.757Z,31.50
2018-08-11T10:29:08.184Z,31.00
2018-08-11T10:31:36.604Z,30.70
2018-08-11T10:34:05.060Z,31.70
2018-08-11T10:36:33.568Z,32.50
2018-08-11T10:39:02.150Z,32.60
2018-08-11T10:41:30.569Z,32.80
2018-08-11T10:43:59.004Z,33.30
2018-08-11T10:48:55.597Z,31.30
2018-08-11T10:51:24.018Z,30.50
2018-08-11T10:53:52.561Z,30.70
2018-08-11T10:56:20.974Z,30.50
2018-08-11T10:58:49.382Z,30.50
2018-08-11T11:06:14.065Z,26.90
2018-08-11T11:08:42.725Z,26.30
2018-08-11T11:11:11.353Z,26.10
2018-08-11T11:13:39.801Z,26.00
2018-08-11T11:16:08.248Z,25.50
2018-08-11T11:18:36.691Z,25.50
2018-08-11T11:21:05.638Z,25.80
2018-08-11T11:23:34.024Z,26.10
2018-08-11T11:26:02.468Z,26.00
2018-08-11T11:28:30.852Z,25.60
2018-08-11T11:30:59.305Z,25.20
2018-08-11T11:33:27.700Z,24.90
2018-08-11T11:35:56.119Z,24.90
2018-08-11T11:38:24.513Z,24.90
2018-08-11T11:40:52.973Z,24.90
2018-08-11T11:43:21.428Z,24.80
2018-08-11T11:45:49.900Z,24.60
2018-08-11T11:48:18.348Z,24.40
2018-08-11T11:50:46.754Z,24.30
2018-08-11T11:53:15.168Z,24.40
2018-08-11T11:55:43.564Z,24.60
2018-08-11T11:58:12.029Z,24.70
2018-08-11T12:00:40.450Z,24.90
2018-08-11T12:03:08.887Z,25.00
2018-08-11T12:05:37.296Z,25.00
2018-08-11T12:08:06.060Z,24.80
2018-08-11T12:10:34.480Z,24.50
2018-08-11T12:13:02.933Z,24.60
2018-08-11T12:15:31.342Z,24.70
2018-08-11T12:18:00.036Z,24.80
2018-08-11T12:20:28.461Z,24.60
2018-08-11T12:22:56.939Z,24.50
2018-08-11T12:25:25.377Z,24.20
2018-08-11T12:27:53.801Z,24.10
2018-08-11T12:30:22.240Z,24.10
2018-08-11T12:32:50.689Z,24.00
2018-08-11T12:35:19.290Z,24.00
2018-08-11T12:37:47.769Z,23.90
2018-08-11T12:40:16.178Z,23.70
2018-08-11T12:42:44.624Z,23.70
2018-08-11T12:45:13.035Z,23.60
2018-08-11T12:47:41.492Z,23.70
2018-08-11T12:50:10.382Z,23.90
2018-08-11T12:52:38.905Z,24.10
2018-08-11T12:55:07.337Z,24.00
2018-08-11T12:57:35.772Z,23.80
2018-08-11T13:00:05.251Z,23.60
2018-08-11T13:02:33.656Z,23.70
2018-08-11T13:05:02.099Z,23.60
2018-08-11T13:07:30.736Z,23.50
2018-08-11T13:09:59.165Z,23.60
2018-08-11T13:14:55.732Z,23.70
2018-08-11T13:17:24.393Z,23.80
2018-08-11T13:19:52.829Z,23.70
2018-08-11T13:22:21.221Z,23.50
2018-08-11T13:24:49.640Z,23.50
2018-08-11T13:27:18.057Z,23.50
2018-08-11T13:29:46.539Z,23.40
2018-08-11T13:32:14.956Z,23.30
2018-08-11T13:34:43.401Z,23.20
2018-08-11T13:37:11.815Z,23.20
2018-08-11T13:39:45.769Z,23.10
2018-08-11T13:44:42.458Z,23.00
2018-08-11T13:47:10.953Z,22.90
2018-08-11T13:49:39.463Z,22.80
2018-08-11T13:52:07.946Z,22.90
2018-08-11T13:54:36.394Z,23.00
2018-08-11T13:57:04.879Z,23.20
2018-08-11T13:59:33.312Z,23.30
2018-08-11T14:02:01.742Z,23.50
2018-08-11T14:04:30.181Z,23.70
2018-08-11T14:06:58.634Z,23.80
2018-08-11T14:09:27.049Z,23.60
2018-08-11T14:11:55.564Z,23.50
2018-08-11T14:14:23.953Z,23.30
2018-08-11T14:16:52.393Z,23.20
2018-08-11T14:19:20.821Z,23.10
2018-08-11T14:21:49.261Z,23.20
2018-08-11T14:24:17.689Z,23.10
2018-08-11T14:26:46.137Z,23.10
2018-08-11T14:29:14.549Z,23.00
2018-08-11T14:31:43.045Z,23.00
2018-08-11T14:34:11.481Z,23.10
2018-08-11T14:36:40.021Z,23.30
2018-08-11T14:39:09.473Z,23.40
2018-08-11T14:41:38.014Z,23.30
2018-08-11T14:44:06.756Z,23.20
2018-08-11T14:46:35.169Z,23.10
2018-08-11T14:49:03.677Z,23.00
2018-08-11T14:51:32.138Z,23.00
2018-08-11T14:54:00.621Z,23.00
2018-08-11T14:56:29.155Z,23.10
2018-08-11T14:58:57.641Z,23.20
2018-08-11T15:01:26.082Z,23.20
2018-08-11T15:03:54.540Z,23.20
2018-08-11T15:06:23.241Z,23.10
2018-08-11T15:08:51.700Z,23.10
2018-08-11T15:11:20.118Z,23.20
2018-08-11T15:13:48.549Z,23.30
2018-08-11T15:16:17.032Z,23.30
2018-08-11T15:18:45.455Z,23.30
2018-08-11T15:21:13.924Z,23.40
2018-08-11T15:23:42.381Z,23.40
2018-08-11T15:26:10.800Z,23.30
2018-08-11T15:28:39.199Z,23.20
2018-08-11T15:31:07.704Z,23.20
2018-08-11T15:33:36.109Z,23.20
2018-08-11T15:36:04.860Z,23.10
2018-08-11T15:38:33.364Z,23.00
2018-08-11T15:41:01.781Z,23.00
2018-08-11T15:43:30.186Z,23.10
2018-08-11T15:45:58.666Z,23.10
2018-08-11T15:48:27.333Z,23.10
2018-08-11T15:50:55.990Z,23.20
2018-08-11T15:53:24.392Z,23.10
2018-08-11T15:55:53.057Z,23.00
2018-08-11T15:58:21.446Z,22.90
2018-08-11T16:00:49.890Z,22.70
2018-08-11T16:05:46.439Z,22.50
2018-08-11T16:08:15.217Z,22.50
2018-08-11T16:10:43.840Z,22.50
2018-08-11T16:13:12.245Z,22.50
2018-08-11T16:15:40.684Z,22.60
2018-08-11T16:18:09.120Z,22.60
2018-08-11T16:20:37.514Z,22.70
2018-08-11T16:23:06.112Z,22.80
2018-08-11T16:28:02.651Z,22.90
2018-08-11T16:30:31.090Z,22.80
2018-08-11T16:32:59.586Z,22.70
2018-08-11T16:35:27.988Z,22.60
2018-08-11T16:37:56.453Z,22.40
2018-08-11T16:40:24.858Z,22.40
2018-08-11T16:42:53.300Z,22.40
2018-08-11T16:45:21.708Z,22.50
2018-08-11T16:47:50.224Z,22.50
2018-08-11T16:50:18.635Z,22.50
2018-08-11T16:52:47.033Z,22.50
2018-08-11T16:55:15.490Z,22.50
2018-08-11T16:57:43.938Z,22.40
2018-08-11T17:00:13.382Z,22.50
2018-08-11T17:02:42.685Z,22.50
2018-08-11T17:05:11.189Z,22.60
2018-08-11T17:07:39.569Z,22.60
2018-08-11T17:10:09.451Z,22.60
2018-08-11T17:12:38.423Z,22.50
2018-08-11T17:15:07.108Z,22.60
2018-08-11T17:17:35.519Z,22.60
2018-08-11T17:20:04.171Z,22.60
2018-08-11T17:22:32.582Z,22.60
2018-08-11T17:25:01.013Z,22.50
2018-08-11T17:27:29.429Z,22.50
2018-08-11T17:29:57.947Z,22.40
2018-08-11T17:32:26.441Z,22.30
2018-08-11T17:34:54.905Z,22.30
2018-08-11T17:37:23.335Z,22.20
2018-08-11T17:39:51.801Z,22.10
2018-08-11T17:42:20.208Z,22.10
2018-08-11T17:44:48.637Z,21.90
2018-08-11T17:47:17.052Z,21.80
2018-08-11T17:49:45.478Z,21.80
2018-08-11T17:52:13.890Z,21.70
2018-08-11T17:57:10.586Z,21.60
2018-08-11T17:59:39.133Z,21.50
2018-08-11T18:02:07.648Z,21.40
2018-08-11T18:04:36.064Z,21.40
2018-08-11T18:07:04.585Z,21.10
2018-08-11T18:09:32.993Z,21.00
2018-08-11T18:12:01.486Z,20.80
2018-08-11T18:14:29.988Z,20.70
2018-08-11T18:16:58.398Z,20.60
2018-08-11T18:19:26.798Z,20.40
2018-08-11T18:21:55.231Z,20.30
2018-08-11T18:24:23.682Z,20.20
2018-08-11T18:26:52.117Z,20.10
2018-08-11T18:29:20.524Z,20.00
2018-08-11T18:31:48.965Z,19.90
2018-08-11T18:34:17.413Z,19.80
2018-08-11T18:36:45.916Z,19.70
2018-08-11T18:39:14.824Z,19.60
2018-08-11T18:41:43.788Z,19.50
2018-08-11T18:44:12.202Z,19.40
2018-08-11T18:46:40.752Z,19.30
2018-08-11T18:49:09.224Z,19.30
2018-08-11T18:51:37.672Z,19.20
2018-08-11T18:54:06.628Z,19.10
2018-08-11T18:56:35.124Z,19.00
2018-08-11T18:59:03.620Z,19.00
2018-08-11T19:01:32.139Z,18.80
2018-08-11T19:04:00.576Z,18.80
2018-08-11T19:06:29.083Z,18.70
2018-08-11T19:08:57.503Z,18.70
2018-08-11T19:11:26.028Z,18.60
2018-08-11T19:13:54.492Z,18.60
2018-08-11T19:16:22.969Z,18.50
2018-08-11T19:18:51.497Z,18.40
2018-08-11T19:21:19.934Z,18.30
2018-08-11T19:23:48.411Z,18.20
2018-08-11T19:26:16.841Z,18.20
2018-08-11T19:28:45.296Z,18.10
2018-08-11T19:31:13.732Z,18.00
2018-08-11T19:33:42.185Z,18.00
2018-08-11T19:36:10.621Z,18.00
2018-08-11T19:38:39.460Z,18.00
2018-08-11T19:41:07.867Z,17.90
2018-08-11T19:43:36.605Z,17.80
2018-08-11T19:46:05.213Z,17.70
2018-08-11T19:51:01.794Z,17.70
2018-08-11T19:53:30.257Z,17.60
2018-08-11T19:55:58.807Z,17.60
2018-08-11T19:58:27.222Z,17.50
2018-08-11T20:00:55.693Z,17.40
2018-08-11T20:03:24.191Z,17.40
2018-08-11T20:05:52.739Z,17.40
2018-08-11T20:08:21.206Z,17.40
2018-08-11T20:10:49.702Z,17.40
2018-08-11T20:13:18.166Z,17.40
2018-08-11T20:15:46.589Z,17.40
2018-08-11T20:18:14.997Z,17.30
2018-08-11T20:20:43.481Z,17.30
2018-08-11T20:23:11.917Z,17.30
2018-08-11T20:25:40.556Z,17.20
2018-08-11T20:28:08.877Z,17.20
2018-08-11T20:30:37.352Z,17.10
2018-08-11T20:33:05.788Z,17.10
2018-08-11T20:35:34.289Z,17.00
2018-08-11T20:38:02.753Z,17.00
2018-08-11T20:40:31.447Z,17.00
2018-08-11T20:43:00.053Z,17.00
2018-08-11T20:45:28.501Z,17.00
2018-08-11T20:47:56.997Z,16.90
2018-08-11T20:50:25.435Z,16.80
2018-08-11T20:52:53.885Z,16.80
2018-08-11T20:55:22.325Z,16.70
2018-08-11T20:57:50.818Z,16.70
2018-08-11T21:00:19.246Z,16.70
2018-08-11T21:02:47.689Z,16.60
2018-08-11T21:05:16.163Z,16.60
2018-08-11T21:07:44.598Z,16.60
2018-08-11T21:10:14.446Z,16.50
2018-08-11T21:12:43.379Z,16.40
2018-08-11T21:15:12.523Z,16.40
2018-08-11T21:17:41.129Z,16.40
2018-08-11T21:20:12.085Z,16.40
2018-08-11T21:22:40.565Z,16.40
2018-08-11T21:25:10.081Z,16.40
2018-08-11T21:27:39.031Z,16.30
2018-08-11T21:30:10.213Z,16.20
2018-08-11T21:32:38.750Z,16.20
2018-08-11T21:35:07.194Z,16.20
2018-08-11T21:37:35.717Z,16.20
2018-08-11T21:40:05.681Z,16.10
2018-08-11T21:42:34.102Z,16.10
2018-08-11T21:45:02.497Z,16.00
2018-08-11T21:47:30.976Z,15.90
2018-08-11T21:50:00.453Z,15.90
2018-08-11T21:52:28.967Z,15.90
2018-08-11T21:54:57.385Z,15.90
2018-08-11T21:57:25.872Z,15.80
2018-08-11T21:59:54.293Z,15.70
2018-08-11T22:02:22.765Z,15.70
2018-08-11T22:04:51.175Z,15.60
2018-08-11T22:07:19.623Z,15.50
2018-08-11T22:09:48.088Z,15.50
2018-08-11T22:12:16.574Z,15.50
2018-08-11T22:14:45.025Z,15.50
2018-08-11T22:17:13.482Z,15.50
2018-08-11T22:19:41.906Z,15.40
2018-08-11T22:22:10.360Z,15.40
2018-08-11T22:24:38.788Z,15.40
2018-08-11T22:27:07.414Z,15.40
2018-08-11T22:29:35.860Z,15.30
2018-08-11T22:32:04.321Z,15.30
2018-08-11T22:34:32.792Z,15.30
2018-08-11T22:37:01.228Z,15.20
2018-08-11T22:39:29.744Z,15.20
2018-08-11T22:41:58.210Z,15.20
2018-08-11T22:44:26.656Z,15.20
2018-08-11T22:46:55.136Z,15.20
2018-08-11T22:49:23.608Z,15.10
2018-08-11T22:51:52.048Z,15.20
2018-08-11T22:56:48.605Z,15.10
2018-08-11T22:59:17.029Z,15.10
2018-08-11T23:01:45.454Z,15.10
2018-08-11T23:04:13.904Z,15.00
2018-08-11T23:06:42.372Z,15.00
2018-08-11T23:09:10.854Z,15.00
2018-08-11T23:11:39.278Z,14.90
2018-08-11T23:14:07.729Z,14.90
2018-08-11T23:16:36.193Z,14.80
2018-08-11T23:19:04.636Z,14.80
2018-08-11T23:21:33.069Z,14.70
2018-08-11T23:24:01.529Z,14.70
2018-08-11T23:26:29.959Z,14.60
2018-08-11T23:28:58.437Z,14.60
2018-08-11T23:31:26.929Z,14.50
2018-08-11T23:33:55.364Z,14.50
2018-08-11T23:36:23.824Z,14.50
2018-08-11T23:38:52.299Z,14.50
2018-08-11T23:41:20.755Z,14.50
2018-08-11T23:43:49.188Z,14.50
2018-08-11T23:46:17.620Z,14.50
2018-08-11T23:48:46.157Z,14.40
2018-08-11T23:51:14.848Z,14.40
2018-08-11T23:53:43.409Z,14.40
2018-08-11T23:56:12.681Z,14.40
2018-08-11T23:58:41.097Z,14.40
